Time;durP1;ratioP1;P1;durP2;ratioP2;P2;SDS_P1;SDS_P2;PMS_P1;PMS_P2;Temp;Humidity;BMP_temperature;BMP_pressure;BME280_temperature;BME280_humidity;BME280_pressure;Samples;Min_cycle;Max_cycle;Signal;HPM_P1;HPM_P2
2023/11/01 04:08:23;;;;;;;0.30;0.30;;;11.50;99.90;;;;;;4972967;28;20897;-61
2023/11/01 04:10:49;;;;;;;0.30;0.20;;;11.40;99.90;;;;;;4973978;28;20425;-60
2023/11/01 04:13:15;;;;;;;0.30;0.30;;;11.40;99.90;;;;;;4973676;28;20187;-60
2023/11/01 04:15:41;;;;;;;0.30;0.20;;;11.40;99.90;;;;;;4974048;28;20232;-60
2023/11/01 04:18:07;;;;;;;0.30;0.20;;;11.30;99.90;;;;;;4975294;28;20189;-59
2023/11/01 04:20:32;;;;;;;0.30;0.30;;;11.30;99.90;;;;;;4974237;28;20186;-59
2023/11/01 04:22:58;;;;;;;0.40;0.40;;;11.30;99.90;;;;;;4975467;28;20259;-60
2023/11/01 04:25:23;;;;;;;0.30;0.27;;;11.20;99.90;;;;;;4974742;28;20202;-60
2023/11/01 04:27:49;;;;;;;0.30;0.30;;;11.20;99.90;;;;;;4975107;28;20197;-60
2023/11/01 04:30:15;;;;;;;0.30;0.30;;;11.20;99.90;;;;;;4974691;28;20682;-60
2023/11/01 04:32:41;;;;;;;0.30;0.20;;;11.10;99.90;;;;;;4973724;28;20428;-61
2023/11/01 04:35:09;;;;;;;0.30;0.30;;;11.10;99.90;;;;;;4973468;28;20196;-61
2023/11/01 04:37:38;;;;;;;0.30;0.20;;;11.10;99.90;;;;;;4975016;28;20267;-60
2023/11/01 04:40:06;;;;;;;0.88;0.82;;;11.10;99.90;;;;;;4974989;28;20226;-59
2023/11/01 04:42:32;;;;;;;0.30;0.30;;;11.00;99.90;;;;;;4973945;28;20185;-60
2023/11/01 04:44:57;;;;;;;0.30;0.30;;;10.90;99.90;;;;;;4974630;28;20556;-59
2023/11/01 04:47:23;;;;;;;0.53;0.53;;;10.90;99.90;;;;;;4974733;28;20204;-60
2023/11/01 04:49:49;;;;;;;0.30;0.30;;;10.80;99.90;;;;;;4974712;28;20172;-60
2023/11/01 04:52:14;;;;;;;0.30;0.30;;;10.70;99.90;;;;;;4974280;28;20208;-59
2023/11/01 04:54:40;;;;;;;0.30;0.30;;;10.70;99.90;;;;;;4974602;28;20421;-61
2023/11/01 04:57:06;;;;;;;0.30;0.30;;;10.60;99.90;;;;;;4974810;28;20169;-59
2023/11/01 04:59:31;;;;;;;0.30;0.30;;;10.60;99.90;;;;;;4974825;28;20519;-60
2023/11/01 05:01:57;;;;;;;0.30;0.30;;;10.50;99.90;;;;;;4973911;28;20254;-61
2023/11/01 05:04:23;;;;;;;0.30;0.30;;;10.40;99.90;;;;;;4974242;28;20191;-59
2023/11/01 05:06:50;;;;;;;0.30;0.30;;;10.40;99.90;;;;;;4974237;28;20712;-59
2023/11/01 05:09:17;;;;;;;0.30;0.30;;;10.40;99.90;;;;;;4974442;28;20420;-60
2023/11/01 05:11:45;;;;;;;0.30;0.30;;;10.30;99.90;;;;;;4974474;28;20169;-60
2023/11/01 05:14:11;;;;;;;0.30;0.30;;;10.30;99.90;;;;;;4974269;28;20274;-60
2023/11/01 05:16:37;;;;;;;0.30;0.30;;;10.30;99.90;;;;;;4976354;28;20212;-59
2023/11/01 05:19:02;;;;;;;0.30;0.30;;;10.30;99.90;;;;;;4978302;28;20583;-60
2023/11/01 05:21:28;;;;;;;0.30;0.30;;;10.30;99.90;;;;;;4978492;28;20164;-59
2023/11/01 05:23:53;;;;;;;0.30;0.30;;;10.30;99.90;;;;;;4960923;28;20183;-60
2023/11/01 05:26:19;;;;;;;0.30;0.30;;;10.30;99.90;;;;;;4978360;28;20199;-59
2023/11/01 05:28:44;;;;;;;0.30;0.30;;;10.30;99.90;;;;;;4978061;28;20372;-59
2023/11/01 05:31:10;;;;;;;0.30;0.30;;;10.30;99.90;;;;;;4978592;28;20176;-59
2023/11/01 05:33:36;;;;;;;0.30;0.30;;;10.30;99.90;;;;;;4977774;28;20183;-59
2023/11/01 05:36:06;;;;;;;0.30;0.20;;;10.30;99.90;;;;;;4977855;28;20734;-59
2023/11/01 05:38:35;;;;;;;0.30;0.30;;;10.30;99.90;;;;;;4978146;28;20176;-60
2023/11/01 05:41:01;;;;;;;0.30;0.30;;;10.30;99.90;;;;;;4978018;28;20179;-60
2023/11/01 05:43:26;;;;;;;0.30;0.30;;;10.30;99.90;;;;;;4977315;28;20181;-60
2023/11/01 05:45:52;;;;;;;0.30;0.30;;;10.20;99.90;;;;;;4977817;28;20204;-59
2023/11/01 05:48:18;;;;;;;0.30;0.20;;;10.20;99.90;;;;;;4977996;28;20201;-60
2023/11/01 05:50:44;;;;;;;0.30;0.20;;;10.20;99.90;;;;;;4977990;28;20193;-60
2023/11/01 05:53:11;;;;;;;0.30;0.30;;;10.20;99.90;;;;;;4977020;28;20176;-60
2023/11/01 05:55:39;;;;;;;0.30;0.30;;;10.20;99.90;;;;;;4977573;28;20204;-59
2023/11/01 05:58:07;;;;;;;0.30;0.30;;;10.20;99.90;;;;;;4977996;28;20267;-59
2023/11/01 06:00:34;;;;;;;0.30;0.20;;;10.20;99.90;;;;;;4977690;28;20553;-59
2023/11/01 06:02:59;;;;;;;0.30;0.30;;;10.20;99.90;;;;;;4977001;28;20180;-60
2023/11/01 06:05:25;;;;;;;0.30;0.20;;;10.20;99.90;;;;;;4976176;28;20280;-59
2023/11/01 06:07:51;;;;;;;0.30;0.20;;;10.20;99.90;;;;;;4977225;28;20455;-60
2023/11/01 06:10:17;;;;;;;0.30;0.20;;;10.30;99.90;;;;;;4977385;28;20180;-59
2023/11/01 06:12:42;;;;;;;0.30;0.30;;;10.30;99.90;;;;;;4977476;28;20411;-60
2023/11/01 06:15:10;;;;;;;0.30;0.30;;;10.20;99.90;;;;;;4976446;28;20888;-61
2023/11/01 06:17:37;;;;;;;0.30;0.20;;;10.30;99.90;;;;;;4959996;28;20272;-59
2023/11/01 06:20:05;;;;;;;0.30;0.30;;;10.20;99.90;;;;;;4977341;28;20665;-60
2023/11/01 06:22:32;;;;;;;0.30;0.30;;;10.20;99.90;;;;;;4977177;28;20215;-61
2023/11/01 06:24:57;;;;;;;0.95;0.40;;;10.20;99.90;;;;;;4976180;28;20287;-61
2023/11/01 06:27:23;;;;;;;0.30;0.30;;;10.20;99.90;;;;;;4976692;28;20292;-60
2023/11/01 06:29:49;;;;;;;0.30;0.30;;;10.20;99.90;;;;;;4976968;28;20460;-60
2023/11/01 06:32:14;;;;;;;0.30;0.30;;;10.20;99.90;;;;;;4977229;28;20176;-60
2023/11/01 06:34:40;;;;;;;0.30;0.30;;;10.30;99.90;;;;;;4975481;28;20211;-61
2023/11/01 06:37:06;;;;;;;0.30;0.30;;;10.30;99.90;;;;;;4976631;28;20523;-60
2023/11/01 06:39:31;;;;;;;0.30;0.30;;;10.30;99.90;;;;;;4976903;28;20324;-60
2023/11/01 06:41:57;;;;;;;0.30;0.30;;;10.30;99.90;;;;;;4976924;28;20407;-60
2023/11/01 06:44:24;;;;;;;0.30;0.30;;;10.30;99.90;;;;;;4976535;28;20243;-61
2023/11/01 06:46:49;;;;;;;0.30;0.30;;;10.30;99.90;;;;;;4975991;28;20212;-61
2023/11/01 06:49:16;;;;;;;0.30;0.20;;;10.30;99.90;;;;;;4976767;28;20175;-61
2023/11/01 06:51:42;;;;;;;0.30;0.20;;;10.30;99.90;;;;;;4976787;28;20181;-59
2023/11/01 06:54:07;;;;;;;0.30;0.20;;;10.40;99.90;;;;;;4976647;28;20168;-61
2023/11/01 06:56:33;;;;;;;0.30;0.20;;;10.50;99.90;;;;;;4976614;28;20520;-60
2023/11/01 06:58:58;;;;;;;0.30;0.20;;;10.50;99.90;;;;;;4976661;28;20170;-60
2023/11/01 07:01:24;;;;;;;0.30;0.30;;;10.60;99.90;;;;;;4975404;28;20178;-61
2023/11/01 07:03:50;;;;;;;0.30;0.20;;;10.60;99.90;;;;;;4976093;28;20169;-61
2023/11/01 07:06:16;;;;;;;0.30;0.30;;;10.80;99.90;;;;;;4976145;28;20271;-60
2023/11/01 07:08:44;;;;;;;0.30;0.30;;;10.90;99.90;;;;;;4976480;28;20203;-60
2023/11/01 07:11:11;;;;;;;0.30;0.30;;;11.00;99.90;;;;;;4975804;28;20463;-60
2023/11/01 07:13:37;;;;;;;0.40;0.40;;;11.10;99.90;;;;;;4976217;28;20205;-60
2023/11/01 07:16:04;;;;;;;0.30;0.30;;;11.20;99.90;;;;;;4958505;28;20448;-60
2023/11/01 07:18:30;;;;;;;0.30;0.20;;;11.30;99.90;;;;;;4976193;28;20249;-61
2023/11/01 07:20:55;;;;;;;0.67;0.60;;;11.40;99.90;;;;;;4975142;28;20525;-61
2023/11/01 07:23:21;;;;;;;0.30;0.20;;;11.50;99.90;;;;;;4976166;28;20629;-61
2023/11/01 07:25:46;;;;;;;0.30;0.20;;;11.60;99.90;;;;;;4975689;28;20213;-61
2023/11/01 07:28:12;;;;;;;0.30;0.30;;;11.70;99.90;;;;;;4976096;28;20252;-60
2023/11/01 07:30:37;;;;;;;0.30;0.30;;;11.80;99.90;;;;;;4975857;28;20279;-60
2023/11/01 07:33:03;;;;;;;0.30;0.30;;;12.00;99.90;;;;;;4975261;28;20549;-62
2023/11/01 07:35:29;;;;;;;0.30;0.30;;;12.20;99.90;;;;;;4975571;28;20199;-61
2023/11/01 07:37:54;;;;;;;0.30;0.20;;;12.60;99.90;;;;;;4976089;28;20187;-61
2023/11/01 07:40:20;;;;;;;0.30;0.30;;;13.10;99.90;;;;;;4974590;28;20535;-61
2023/11/01 07:42:46;;;;;;;0.30;0.30;;;13.70;99.90;;;;;;4974666;28;20175;-61
2023/11/01 07:45:12;;;;;;;0.30;0.20;;;14.20;99.90;;;;;;4975513;28;20570;-61
2023/11/01 07:47:38;;;;;;;0.30;0.20;;;14.70;99.90;;;;;;4975746;28;20592;-59
2023/11/01 07:50:05;;;;;;;0.30;0.30;;;15.20;99.90;;;;;;4975599;28;20519;-60
2023/11/01 07:52:30;;;;;;;0.40;0.40;;;15.50;99.90;;;;;;4975130;28;20476;-60
2023/11/01 07:54:56;;;;;;;0.30;0.20;;;15.80;99.90;;;;;;4958119;28;20405;-60
2023/11/01 07:57:22;;;;;;;0.30;0.30;;;16.30;99.90;;;;;;4975701;28;20184;-60
2023/11/01 07:59:48;;;;;;;0.30;0.30;;;16.90;99.90;;;;;;4975562;28;20422;-60
2023/11/01 08:02:14;;;;;;;0.30;0.30;;;17.30;99.90;;;;;;4974643;28;20594;-61
2023/11/01 08:04:40;;;;;;;0.30;0.30;;;17.80;99.90;;;;;;4974541;28;20449;-60
2023/11/01 08:07:05;;;;;;;0.30;0.20;;;18.20;99.90;;;;;;4975269;28;20213;-60
2023/11/01 08:09:31;;;;;;;0.30;0.20;;;18.50;99.90;;;;;;4974573;28;20446;-61
2023/11/01 08:11:57;;;;;;;0.63;0.60;;;18.80;99.20;;;;;;4973530;28;20179;-60
2023/11/01 08:14:22;;;;;;;0.30;0.20;;;19.30;99.20;;;;;;4974237;28;20180;-60
2023/11/01 08:16:48;;;;;;;0.30;0.20;;;19.90;97.70;;;;;;4974735;28;20714;-60
2023/11/01 08:19:15;;;;;;;0.30;0.20;;;20.30;95.50;;;;;;4974856;28;20191;-61
2023/11/01 08:21:41;;;;;;;0.30;0.30;;;20.50;95.70;;;;;;4974864;28;20167;-60
2023/11/01 08:24:07;;;;;;;0.30;0.20;;;20.90;95.50;;;;;;4974465;28;20427;-60
2023/11/01 08:26:33;;;;;;;0.30;0.30;;;21.40;94.20;;;;;;4974961;28;20424;-60
2023/11/01 08:28:59;;;;;;;0.37;0.27;;;21.90;93.00;;;;;;4957638;28;20460;-60
2023/11/01 08:31:24;;;;;;;0.30;0.20;;;22.30;92.30;;;;;;4975049;28;20181;-60
2023/11/01 08:33:50;;;;;;;0.30;0.20;;;22.50;91.50;;;;;;4974045;28;20625;-60
2023/11/01 08:36:15;;;;;;;0.30;0.20;;;22.50;91.00;;;;;;4957243;28;20528;-60
2023/11/01 08:38:41;;;;;;;0.30;0.20;;;22.20;90.30;;;;;;4974936;28;20233;-60
2023/11/01 08:41:08;;;;;;;0.30;0.20;;;22.00;90.60;;;;;;4974663;28;20174;-60
2023/11/01 08:43:33;;;;;;;0.30;0.20;;;21.80;91.10;;;;;;4974708;28;20187;-60
2023/11/01 08:45:59;;;;;;;0.40;0.30;;;22.00;91.00;;;;;;4973440;28;20447;-60
2023/11/01 08:48:25;;;;;;;0.30;0.27;;;22.40;91.20;;;;;;4974804;28;20658;-60
2023/11/01 08:50:51;;;;;;;0.30;0.20;;;23.00;89.70;;;;;;4956941;28;20424;-60
2023/11/01 08:53:16;;;;;;;0.30;0.20;;;23.40;89.60;;;;;;4975069;28;20204;-60
2023/11/01 08:55:42;;;;;;;0.30;0.30;;;23.80;88.10;;;;;;4973746;28;20678;-60
2023/11/01 08:58:08;;;;;;;0.30;0.20;;;24.10;87.00;;;;;;4974697;28;20168;-60
2023/11/01 09:00:33;;;;;;;0.30;0.20;;;24.50;86.50;;;;;;4974607;28;20630;-60
2023/11/01 09:02:59;;;;;;;0.30;0.30;;;24.70;84.80;;;;;;4974889;28;20172;-59
2023/11/01 09:05:24;;;;;;;0.30;0.30;;;24.60;83.80;;;;;;4973763;28;20196;-59
2023/11/01 09:07:50;;;;;;;0.30;0.20;;;24.30;83.70;;;;;;4974425;28;20224;-59
2023/11/01 09:10:16;;;;;;;0.40;0.40;;;23.80;83.40;;;;;;4957357;28;20202;-59
2023/11/01 09:12:41;;;;;;;0.30;0.20;;;23.60;83.90;;;;;;4974465;28;20169;-60
2023/11/01 09:15:07;;;;;;;0.30;0.20;;;23.30;85.30;;;;;;4973855;28;20515;-59
2023/11/01 09:17:33;;;;;;;0.30;0.20;;;23.30;85.10;;;;;;4973789;28;20177;-59
2023/11/01 09:19:59;;;;;;;0.30;0.20;;;23.50;86.10;;;;;;4974543;28;20391;-60
2023/11/01 09:22:25;;;;;;;0.30;0.20;;;23.60;83.80;;;;;;4974230;28;20803;-60
2023/11/01 09:24:50;;;;;;;0.30;0.20;;;23.70;84.40;;;;;;4974064;28;20257;-60
2023/11/01 09:27:17;;;;;;;0.40;0.33;;;23.60;84.60;;;;;;4973577;28;20871;-59
2023/11/01 09:29:42;;;;;;;0.40;0.30;;;23.60;83.20;;;;;;4973965;28;20183;-59
2023/11/01 09:32:08;;;;;;;0.30;0.30;;;23.30;85.10;;;;;;4973969;28;20766;-59
2023/11/01 09:34:33;;;;;;;0.30;0.30;;;23.30;85.00;;;;;;4973713;28;20169;-60
2023/11/01 09:36:59;;;;;;;0.30;0.30;;;23.30;84.20;;;;;;4973588;28;20207;-60
2023/11/01 09:39:25;;;;;;;0.30;0.20;;;23.10;84.40;;;;;;4974392;28;20180;-60
2023/11/01 09:42:20;;;;;;;0.30;0.30;;;22.90;84.60;;;;;;4974198;28;20203;-59
2023/11/01 09:44:55;;;;;;;0.30;0.20;;;22.30;85.60;;;;;;4971686;28;20185;-59
2023/11/01 09:47:23;;;;;;;0.30;0.20;;;21.80;86.40;;;;;;4973414;28;20423;-60
2023/11/01 09:49:50;;;;;;;0.30;0.20;;;21.60;86.50;;;;;;4974293;28;20730;-59
2023/11/01 09:52:17;;;;;;;0.30;0.20;;;21.60;86.20;;;;;;4974104;28;20873;-60
2023/11/01 09:54:42;;;;;;;0.30;0.20;;;21.70;87.30;;;;;;4973768;28;20486;-60
2023/11/01 09:57:11;;;;;;;0.30;0.20;;;21.80;87.90;;;;;;4973565;28;21010;-59
2023/11/01 09:59:38;;;;;;;0.30;0.30;;;21.90;88.40;;;;;;4974250;28;20174;-60
2023/11/01 10:02:06;;;;;;;0.30;0.20;;;22.10;87.90;;;;;;4973908;28;20466;-60
2023/11/01 10:04:32;;;;;;;0.30;0.20;;;22.20;88.20;;;;;;4976873;28;20421;-60
2023/11/01 10:06:57;;;;;;;0.30;0.20;;;22.30;87.80;;;;;;4977352;28;20906;-59
2023/11/01 10:09:23;;;;;;;0.30;0.20;;;22.50;87.50;;;;;;4976689;28;20411;-59
2023/11/01 10:11:49;;;;;;;0.30;0.20;;;22.80;86.30;;;;;;4977319;28;20179;-60
2023/11/01 10:14:27;;;;;;;0.30;0.20;;;23.20;86.00;;;;;;4977185;28;20171;-60
2023/11/01 10:16:54;;;;;;;0.30;0.20;;;23.30;85.20;;;;;;4977419;28;20286;-59
2023/11/01 10:19:20;;;;;;;0.30;0.20;;;23.20;83.10;;;;;;4976797;28;20516;-59
2023/11/01 10:21:45;;;;;;;0.30;0.20;;;22.90;83.70;;;;;;4977362;28;20475;-59
2023/11/01 10:24:11;;;;;;;0.30;0.30;;;22.60;85.50;;;;;;4977161;28;20191;-59
2023/11/01 10:26:37;;;;;;;0.30;0.20;;;22.20;86.00;;;;;;4976795;28;20622;-60
2023/11/01 10:29:03;;;;;;;0.30;0.30;;;22.00;87.20;;;;;;4976602;28;20213;-59
2023/11/01 10:31:28;;;;;;;0.30;0.20;;;21.90;86.60;;;;;;4977058;28;20644;-59
2023/11/01 10:33:54;;;;;;;0.40;0.30;;;21.90;87.70;;;;;;4976648;28;20162;-61
2023/11/01 10:36:20;;;;;;;0.30;0.20;;;21.90;87.10;;;;;;4976892;28;20196;-59
2023/11/01 10:38:47;;;;;;;0.40;0.30;;;21.80;87.10;;;;;;4976324;28;20180;-59
2023/11/01 10:41:15;;;;;;;0.30;0.20;;;21.80;87.60;;;;;;4977022;28;20755;-61
2023/11/01 10:43:41;;;;;;;0.30;0.20;;;21.70;87.60;;;;;;4977063;28;20777;-59
2023/11/01 10:46:07;;;;;;;0.30;0.20;;;21.70;88.00;;;;;;4976452;28;20433;-59
2023/11/01 10:48:33;;;;;;;0.30;0.27;;;21.80;88.40;;;;;;4976527;28;20287;-59
2023/11/01 10:50:59;;;;;;;0.30;0.20;;;21.90;87.50;;;;;;4976059;28;20426;-59
2023/11/01 10:53:25;;;;;;;0.30;0.20;;;21.80;87.60;;;;;;4976567;28;20484;-59
2023/11/01 10:55:51;;;;;;;0.30;0.27;;;21.70;87.40;;;;;;4975992;28;20694;-60
2023/11/01 10:58:27;;;;;;;0.30;0.30;;;21.40;86.60;;;;;;4976773;28;20414;-58
2023/11/01 11:01:12;;;;;;;0.30;0.20;;;21.00;87.40;;;;;;4976145;28;20455;-60
2023/11/01 11:03:43;;;;;;;0.30;0.30;;;20.60;89.20;;;;;;4976485;28;20403;-59
2023/11/01 11:06:15;;;;;;;0.30;0.30;;;20.30;90.40;;;;;;4974082;28;20443;-59
2023/11/01 11:08:41;;;;;;;0.30;0.20;;;20.00;90.80;;;;;;4976161;28;20517;-58
2023/11/01 11:11:18;;;;;;;0.30;0.20;;;19.70;91.20;;;;;;4976636;28;20413;-59
2023/11/01 11:13:49;;;;;;;0.30;0.30;;;19.50;91.10;;;;;;4976168;28;20367;-58
2023/11/01 11:16:18;;;;;;;0.30;0.20;;;19.40;90.60;;;;;;4975407;28;20506;-59
2023/11/01 11:18:46;;;;;;;0.30;0.20;;;19.10;91.10;;;;;;4976570;28;20381;-59
2023/11/01 11:21:49;;;;;;;0.30;0.30;;;19.00;92.00;;;;;;4976200;28;20411;-61
2023/11/01 11:24:36;;;;;;;0.30;0.30;;;18.70;92.30;;;;;;4975837;28;20411;-61
2023/11/01 11:27:01;;;;;;;0.30;0.30;;;18.70;93.00;;;;;;4975444;28;20419;-59
2023/11/01 11:29:42;;;;;;;0.30;0.20;;;18.70;93.70;;;;;;4976048;28;20375;-61
2023/11/01 11:32:21;;;;;;;0.30;0.20;;;18.70;93.10;;;;;;4976250;28;20172;-61
2023/11/01 11:34:47;;;;;;;0.30;0.30;;;18.60;93.00;;;;;;4975753;28;20385;-59
2023/11/01 11:37:14;;;;;;;0.30;0.30;;;18.60;93.50;;;;;;4974676;28;20394;-60
2023/11/01 11:40:06;;;;;;;0.30;0.30;;;18.40;93.30;;;;;;4975738;28;20398;-59
2023/11/01 11:42:41;;;;;;;0.30;0.20;;;18.30;93.20;;;;;;4976162;28;20428;-59
2023/11/01 11:45:08;;;;;;;0.40;0.40;;;18.20;93.40;;;;;;4975204;28;20426;-59
2023/11/01 11:47:34;;;;;;;0.30;0.30;;;18.20;94.40;;;;;;4957468;28;20998;-59
2023/11/01 11:50:10;;;;;;;0.30;0.30;;;18.20;94.50;;;;;;4975603;28;20458;-59
2023/11/01 11:52:36;;;;;;;0.30;0.20;;;18.20;94.30;;;;;;4975984;28;20741;-59
2023/11/01 11:55:03;;;;;;;0.30;0.23;;;18.30;93.40;;;;;;4975237;28;20424;-59
2023/11/01 11:57:30;;;;;;;0.30;0.20;;;18.30;93.30;;;;;;4974235;28;20456;-59
2023/11/01 12:00:08;;;;;;;0.30;0.20;;;18.30;93.30;;;;;;4975524;28;20462;-59
2023/11/01 12:02:34;;;;;;;0.30;0.30;;;18.30;93.30;;;;;;4975587;28;20401;-59
2023/11/01 12:05:01;;;;;;;0.30;0.20;;;18.20;93.00;;;;;;4975201;28;20402;-59
2023/11/01 12:07:27;;;;;;;0.30;0.20;;;18.30;92.70;;;;;;4974468;28;20463;-59
2023/11/01 12:09:54;;;;;;;0.30;0.30;;;18.30;92.90;;;;;;4975479;28;20421;-59
2023/11/01 12:12:20;;;;;;;0.30;0.30;;;18.20;93.50;;;;;;4975113;28;20177;-59
2023/11/01 12:14:55;;;;;;;0.50;0.40;;;18.20;93.30;;;;;;4974926;28;20408;-59
2023/11/01 12:17:21;;;;;;;0.30;0.20;;;18.20;93.00;;;;;;4974819;28;20762;-58
2023/11/01 12:19:47;;;;;;;0.30;0.30;;;18.20;92.70;;;;;;4955262;29;20419;-60
2023/11/01 12:22:13;;;;;;;0.30;0.30;;;18.20;92.20;;;;;;4955438;29;20416;-60
2023/11/01 12:24:38;;;;;;;0.30;0.20;;;18.20;92.90;;;;;;4955211;29;20169;-60
2023/11/01 12:27:27;;;;;;;0.30;0.20;;;18.30;92.30;;;;;;4954616;28;20574;-60
2023/11/01 12:29:55;;;;;;;0.50;0.50;;;18.40;92.30;;;;;;4972596;28;20180;-62
2023/11/01 12:32:24;;;;;;;0.30;0.30;;;18.40;92.20;;;;;;4974904;28;20385;-60
2023/11/01 12:34:49;;;;;;;0.30;0.30;;;18.40;92.20;;;;;;4974521;28;20390;-60
2023/11/01 12:37:18;;;;;;;0.30;0.20;;;18.40;92.40;;;;;;4957574;28;20406;-61
2023/11/01 12:40:14;;;;;;;0.30;0.20;;;18.50;92.70;;;;;;4974160;28;20180;-60
2023/11/01 12:42:47;;;;;;;0.30;0.20;;;18.50;92.70;;;;;;4957832;28;20423;-61
2023/11/01 12:45:14;;;;;;;0.30;0.20;;;18.60;92.00;;;;;;4974449;28;20406;-60
2023/11/01 12:47:41;;;;;;;0.60;0.60;;;18.50;91.70;;;;;;4974642;28;20478;-61
2023/11/01 12:50:08;;;;;;;0.40;0.40;;;18.50;92.20;;;;;;4974197;28;20779;-60
2023/11/01 12:52:34;;;;;;;0.30;0.20;;;18.30;92.10;;;;;;4974830;28;20405;-60
2023/11/01 12:54:59;;;;;;;0.30;0.20;;;18.20;92.60;;;;;;4974505;28;20814;-60
2023/11/01 12:57:25;;;;;;;0.30;0.20;;;18.10;92.70;;;;;;4974534;28;20275;-61
2023/11/01 12:59:50;;;;;;;0.30;0.20;;;18.00;93.00;;;;;;4973912;28;20637;-61
2023/11/01 13:02:17;;;;;;;0.40;0.40;;;17.90;92.90;;;;;;4974575;28;20539;-61
2023/11/01 13:04:43;;;;;;;0.30;0.20;;;17.90;92.40;;;;;;4974735;28;20191;-61
2023/11/01 13:07:10;;;;;;;0.30;0.30;;;17.80;92.50;;;;;;4974232;28;20459;-60
2023/11/01 13:09:36;;;;;;;0.30;0.20;;;17.80;92.50;;;;;;4973772;28;20649;-60
2023/11/01 13:12:03;;;;;;;0.30;0.20;;;17.80;92.70;;;;;;4974450;28;20478;-61
2023/11/01 13:14:32;;;;;;;0.30;0.20;;;17.80;92.80;;;;;;4974199;28;20408;-61
2023/11/01 13:16:57;;;;;;;0.30;0.20;;;17.80;92.90;;;;;;4974312;28;20519;-61
2023/11/01 13:19:23;;;;;;;0.30;0.20;;;17.80;93.20;;;;;;4974359;28;20457;-61
2023/11/01 13:21:49;;;;;;;0.30;0.20;;;17.80;93.40;;;;;;4973618;28;20724;-60
2023/11/01 13:24:14;;;;;;;0.30;0.20;;;17.70;93.80;;;;;;4974132;28;20188;-60
2023/11/01 13:26:40;;;;;;;0.30;0.30;;;17.70;93.80;;;;;;4956716;28;20196;-61
2023/11/01 13:29:06;;;;;;;0.30;0.20;;;17.80;94.00;;;;;;4973483;28;20572;-61
2023/11/01 13:31:31;;;;;;;0.30;0.30;;;17.80;93.80;;;;;;4972987;28;20642;-61
2023/11/01 13:33:57;;;;;;;0.30;0.20;;;17.80;93.90;;;;;;4973977;28;20419;-61
2023/11/01 13:36:22;;;;;;;0.30;0.20;;;17.70;93.90;;;;;;4973921;28;20204;-61
2023/11/01 13:38:48;;;;;;;0.30;0.27;;;17.70;93.80;;;;;;4977731;28;20186;-61
2023/11/01 13:41:14;;;;;;;0.30;0.20;;;17.60;93.60;;;;;;4977456;28;20195;-61
2023/11/01 13:43:39;;;;;;;0.30;0.20;;;17.50;93.20;;;;;;4978176;28;20582;-61
2023/11/01 13:46:06;;;;;;;0.30;0.27;;;17.40;93.20;;;;;;4977468;28;20211;-61
2023/11/01 13:48:32;;;;;;;0.30;0.30;;;17.30;93.70;;;;;;4977818;28;20276;-61
2023/11/01 13:50:58;;;;;;;0.30;0.20;;;17.20;94.00;;;;;;4977857;28;20414;-61
2023/11/01 13:53:23;;;;;;;0.30;0.30;;;17.10;94.10;;;;;;4977467;28;20905;-61
2023/11/01 13:55:50;;;;;;;0.30;0.30;;;17.10;94.20;;;;;;4977482;28;20195;-61
2023/11/01 13:58:18;;;;;;;0.30;0.20;;;17.00;94.00;;;;;;4977614;28;20175;-61
2023/11/01 14:00:46;;;;;;;0.30;0.20;;;17.10;93.50;;;;;;4977652;28;20506;-61
2023/11/01 14:03:13;;;;;;;0.30;0.20;;;17.10;92.90;;;;;;4976325;28;20513;-61
2023/11/01 14:05:40;;;;;;;0.63;0.57;;;17.00;92.60;;;;;;4977316;28;20771;-61
2023/11/01 14:08:09;;;;;;;0.30;0.20;;;17.00;92.50;;;;;;4977267;28;20564;-62
2023/11/01 14:10:35;;;;;;;0.30;0.20;;;17.00;92.40;;;;;;4977510;28;20773;-61
2023/11/01 14:13:03;;;;;;;0.30;0.20;;;16.90;92.40;;;;;;4976606;28;20389;-62
2023/11/01 14:15:33;;;;;;;0.30;0.20;;;16.90;92.60;;;;;;4976934;28;20533;-61
2023/11/01 14:18:06;;;;;;;0.30;0.27;;;16.90;92.50;;;;;;4977373;28;20781;-60
2023/11/01 14:20:33;;;;;;;0.63;0.63;;;16.80;92.60;;;;;;4977622;28;20410;-61
2023/11/01 14:22:59;;;;;;;0.30;0.20;;;16.60;92.80;;;;;;4977219;28;20404;-61
2023/11/01 14:25:25;;;;;;;0.30;0.20;;;16.50;92.70;;;;;;4976373;28;20499;-60
2023/11/01 14:27:51;;;;;;;0.30;0.30;;;16.40;92.90;;;;;;4977031;28;20502;-61
2023/11/01 14:30:20;;;;;;;0.30;0.20;;;16.30;93.10;;;;;;4977149;28;20423;-60
2023/11/01 14:32:46;;;;;;;0.30;0.20;;;16.20;93.40;;;;;;4976951;28;20202;-61
2023/11/01 14:35:13;;;;;;;0.30;0.20;;;16.20;93.30;;;;;;4975801;28;20448;-60
2023/11/01 14:37:42;;;;;;;0.30;0.20;;;16.10;93.30;;;;;;4977075;28;20417;-60
2023/11/01 14:40:09;;;;;;;0.30;0.30;;;16.00;93.40;;;;;;4977098;28;20412;-61
2023/11/01 14:42:35;;;;;;;0.30;0.30;;;16.00;93.40;;;;;;4977066;28;20420;-60
2023/11/01 14:45:03;;;;;;;0.30;0.20;;;15.90;93.50;;;;;;4976042;28;20452;-60
2023/11/01 14:47:28;;;;;;;0.30;0.20;;;15.90;92.90;;;;;;4959450;28;20452;-60
2023/11/01 14:49:54;;;;;;;0.30;0.30;;;15.90;93.00;;;;;;4975643;28;20632;-60
2023/11/01 14:52:19;;;;;;;0.30;0.30;;;15.90;92.70;;;;;;4976975;28;20666;-60
2023/11/01 14:54:45;;;;;;;0.30;0.20;;;15.90;92.60;;;;;;4975986;28;20243;-60
2023/11/01 14:57:10;;;;;;;0.30;0.20;;;15.90;92.70;;;;;;4976622;28;20563;-61
2023/11/01 14:59:36;;;;;;;0.30;0.30;;;15.90;92.40;;;;;;4976876;28;20177;-60
2023/11/01 15:02:03;;;;;;;0.30;0.20;;;15.90;92.60;;;;;;4976687;28;20174;-60
2023/11/01 15:04:29;;;;;;;0.80;0.80;;;15.90;93.00;;;;;;4975840;28;20176;-61
2023/11/01 15:06:54;;;;;;;0.30;0.30;;;15.90;93.20;;;;;;4975617;28;20435;-60
2023/11/01 15:09:20;;;;;;;0.30;0.20;;;15.90;93.50;;;;;;4976508;28;20264;-60
2023/11/01 15:11:48;;;;;;;0.30;0.20;;;15.80;93.60;;;;;;4976440;28;20326;-60
2023/11/01 15:14:15;;;;;;;0.30;0.20;;;15.80;93.60;;;;;;4976593;28;20189;-60
2023/11/01 15:16:41;;;;;;;0.30;0.20;;;15.70;93.60;;;;;;4975950;28;20440;-60
2023/11/01 15:19:06;;;;;;;0.30;0.27;;;15.70;93.70;;;;;;4976416;28;20408;-60
2023/11/01 15:21:32;;;;;;;0.30;0.20;;;15.60;93.80;;;;;;4976524;28;20270;-61
2023/11/01 15:23:57;;;;;;;1.30;1.30;;;15.60;94.00;;;;;;4976175;28;20526;-60
2023/11/01 15:26:25;;;;;;;0.30;0.20;;;15.50;94.00;;;;;;4975484;28;20196;-60
2023/11/01 15:28:52;;;;;;;0.30;0.30;;;15.40;94.20;;;;;;4975977;28;20701;-60
2023/11/01 15:31:18;;;;;;;0.30;0.30;;;15.40;94.50;;;;;;4976305;28;20419;-60
2023/11/01 15:33:43;;;;;;;0.30;0.30;;;15.40;94.70;;;;;;4975967;28;20973;-60
2023/11/01 15:36:09;;;;;;;0.30;0.30;;;15.30;94.90;;;;;;4975415;28;20196;-60
2023/11/01 15:38:35;;;;;;;0.30;0.20;;;15.20;95.00;;;;;;4974234;28;20194;-60
2023/11/01 15:41:00;;;;;;;0.33;0.33;;;15.20;95.30;;;;;;4974807;28;20225;-61
2023/11/01 15:43:26;;;;;;;0.30;0.30;;;15.10;95.50;;;;;;4975728;28;20180;-61
2023/11/01 15:45:51;;;;;;;0.30;0.30;;;15.00;95.90;;;;;;4975424;28;20199;-60
2023/11/01 15:48:21;;;;;;;0.30;0.30;;;15.00;96.30;;;;;;4974837;28;20246;-59
2023/11/01 15:50:47;;;;;;;0.30;0.30;;;14.90;96.90;;;;;;4958032;28;20698;-60
2023/11/01 15:53:13;;;;;;;0.30;0.30;;;14.80;96.80;;;;;;4975609;28;20494;-61
2023/11/01 15:55:39;;;;;;;0.30;0.20;;;14.70;97.10;;;;;;4975193;28;20845;-60
2023/11/01 15:58:05;;;;;;;0.30;0.30;;;14.60;97.20;;;;;;4974730;28;20541;-61
2023/11/01 16:00:30;;;;;;;0.83;0.40;;;14.60;97.30;;;;;;4974746;28;20208;-60
2023/11/01 16:02:59;;;;;;;0.30;0.30;;;14.50;97.20;;;;;;4975380;28;20168;-60
2023/11/01 16:05:25;;;;;;;0.30;0.27;;;14.50;97.30;;;;;;4974806;28;20454;-60
2023/11/01 16:07:50;;;;;;;0.30;0.20;;;14.40;97.30;;;;;;4974686;28;20537;-68
2023/11/01 16:10:16;;;;;;;0.40;0.30;;;14.40;97.40;;;;;;4974782;28;20180;-68
2023/11/01 16:12:41;;;;;;;0.30;0.20;;;14.30;97.50;;;;;;4975249;28;20176;-65
2023/11/01 16:15:07;;;;;;;0.30;0.20;;;14.30;97.30;;;;;;4974700;28;20554;-65
2023/11/01 16:17:33;;;;;;;0.30;0.20;;;14.30;97.20;;;;;;4975145;28;20172;-62
2023/11/01 16:19:58;;;;;;;0.30;0.20;;;14.30;96.80;;;;;;4974216;28;20829;-60
2023/11/01 16:22:25;;;;;;;0.30;0.30;;;14.40;96.60;;;;;;4974487;28;20184;-62
2023/11/01 16:24:50;;;;;;;0.30;0.20;;;14.40;96.50;;;;;;4974493;28;20177;-62
2023/11/01 16:27:21;;;;;;;0.30;0.20;;;14.40;96.60;;;;;;4974129;28;20463;-62
2023/11/01 16:29:47;;;;;;;0.30;0.30;;;14.40;96.70;;;;;;4973727;28;20255;-62
2023/11/01 16:32:15;;;;;;;0.60;0.60;;;14.40;97.30;;;;;;4974766;28;20412;-63
2023/11/01 16:34:44;;;;;;;0.30;0.20;;;14.40;96.90;;;;;;4974427;28;20407;-63
2023/11/01 16:37:10;;;;;;;0.30;0.30;;;14.40;96.60;;;;;;4975006;28;20447;-63
2023/11/01 16:39:36;;;;;;;0.30;0.20;;;14.40;96.50;;;;;;4973883;28;20527;-61
2023/11/01 16:42:01;;;;;;;0.30;0.20;;;14.40;96.70;;;;;;4975094;28;20255;-60
2023/11/01 16:44:27;;;;;;;0.30;0.20;;;14.40;96.80;;;;;;4974330;28;20450;-60
2023/11/01 16:46:56;;;;;;;0.30;0.30;;;14.40;96.90;;;;;;4974240;28;20528;-60
2023/11/01 16:49:21;;;;;;;0.30;0.30;;;14.40;96.50;;;;;;4974431;28;20180;-58
2023/11/01 16:51:47;;;;;;;0.30;0.20;;;14.40;96.30;;;;;;4973659;28;20422;-60
2023/11/01 16:54:12;;;;;;;0.30;0.30;;;14.40;96.40;;;;;;4974311;28;20187;-60